Time;durP1;ratioP1;P1;durP2;ratioP2;P2;SDS_P1;SDS_P2;PMS_P1;PMS_P2;Temp;Humidity;BMP_temperature;BMP_pressure;BME280_temperature;BME280_humidity;BME280_pressure;Samples;Min_cycle;Max_cycle;Signal;HPM_P1;HPM_P2
2023/08/18 00:02:20;;;;;;;38.90;30.03;;;19.00;1.00;;;;;;4973802;28;20884;-81
2023/08/18 00:04:46;;;;;;;50.50;32.77;;;19.00;1.00;;;;;;4985740;28;20235;-82
2023/08/18 00:07:12;;;;;;;42.83;33.47;;;19.10;1.00;;;;;;4969941;28;20431;-83
2023/08/18 00:09:37;;;;;;;41.47;32.70;;;19.10;1.00;;;;;;4957666;28;20233;-81
2023/08/18 00:12:05;;;;;;;46.50;34.20;;;19.10;1.00;;;;;;4969174;28;20278;-82
2023/08/18 00:14:33;;;;;;;51.37;34.07;;;19.10;1.00;;;;;;4971888;28;20168;-81
2023/08/18 00:16:59;;;;;;;42.63;33.97;;;19.10;1.00;;;;;;4965124;28;20596;-83
2023/08/18 00:19:24;;;;;;;45.40;33.43;;;19.10;1.00;;;;;;4973264;28;20917;-82
2023/08/18 00:21:50;;;;;;;44.10;34.47;;;19.10;1.00;;;;;;4988195;28;20272;-82
2023/08/18 00:24:15;;;;;;;47.30;33.90;;;19.20;1.00;;;;;;4963130;28;20556;-81
2023/08/18 00:26:41;;;;;;;48.17;35.83;;;19.20;1.00;;;;;;4973536;28;20270;-83
2023/08/18 00:29:07;;;;;;;45.27;35.97;;;19.20;1.00;;;;;;4963933;28;20205;-83
2023/08/18 00:31:32;;;;;;;44.93;35.90;;;19.20;1.00;;;;;;4973334;28;20478;-82
2023/08/18 00:33:58;;;;;;;46.80;35.57;;;19.20;1.00;;;;;;4971899;28;20228;-81
2023/08/18 00:36:25;;;;;;;50.73;36.57;;;19.20;1.00;;;;;;4972986;28;20190;-82
2023/08/18 00:38:51;;;;;;;53.23;34.17;;;19.10;1.00;;;;;;4972243;28;20176;-81
2023/08/18 00:41:16;;;;;;;49.20;35.70;;;19.10;1.00;;;;;;4968968;28;20538;-79
2023/08/18 00:43:42;;;;;;;47.23;36.63;;;19.10;1.00;;;;;;4959565;28;20684;-81
2023/08/18 00:46:09;;;;;;;50.37;35.90;;;19.10;1.00;;;;;;4972082;28;20185;-81
2023/08/18 00:48:36;;;;;;;54.53;36.80;;;19.10;1.00;;;;;;4971406;28;20217;-82
2023/08/18 00:51:02;;;;;;;47.80;34.83;;;19.10;1.00;;;;;;4987560;28;20855;-82
2023/08/18 00:53:30;;;;;;;54.30;35.60;;;19.10;1.00;;;;;;4972941;28;20470;-80
2023/08/18 00:55:55;;;;;;;47.67;34.00;;;19.10;1.00;;;;;;4974805;28;20197;-82
2023/08/18 00:58:21;;;;;;;48.50;34.37;;;19.10;1.00;;;;;;4960095;28;20470;-80
2023/08/18 01:00:49;;;;;;;49.20;33.73;;;19.10;1.00;;;;;;4968648;28;20302;-81
2023/08/18 01:03:15;;;;;;;51.70;34.60;;;19.10;1.00;;;;;;4971669;28;20621;-82
2023/08/18 01:05:41;;;;;;;51.57;35.00;;;19.10;1.00;;;;;;4970411;28;20501;-82
2023/08/18 01:08:06;;;;;;;48.73;35.90;;;19.10;1.00;;;;;;4963544;28;20452;-81
2023/08/18 01:10:38;;;;;;;47.63;35.30;;;19.10;1.00;;;;;;4971594;28;20204;-82
2023/08/18 01:13:13;;;;;;;46.90;33.77;;;19.20;1.00;;;;;;4972169;28;20194;-82
2023/08/18 01:15:45;;;;;;;40.70;32.13;;;19.20;1.00;;;;;;4970278;28;20449;-83
2023/08/18 01:18:12;;;;;;;46.20;33.77;;;19.20;1.00;;;;;;4962603;28;20456;-83
2023/08/18 01:20:39;;;;;;;40.57;32.23;;;19.20;1.00;;;;;;4968822;28;20461;-81
2023/08/18 01:23:05;;;;;;;41.47;31.77;;;19.20;1.00;;;;;;4967971;28;20450;-82
2023/08/18 01:25:31;;;;;;;44.27;32.77;;;19.20;1.00;;;;;;4974020;28;20849;-80
2023/08/18 01:28:00;;;;;;;46.20;32.43;;;19.20;1.00;;;;;;4969582;28;20212;-80
2023/08/18 01:30:34;;;;;;;44.20;33.87;;;19.20;1.00;;;;;;4971946;28;20495;-82
2023/08/18 01:33:22;;;;;;;45.00;32.30;;;19.20;1.00;;;;;;4962303;28;20982;-80
2023/08/18 01:35:48;;;;;;;42.70;32.17;;;19.20;1.00;;;;;;4968403;28;20439;-82
2023/08/18 01:38:15;;;;;;;45.50;33.77;;;19.20;1.00;;;;;;4971539;28;20443;-81
2023/08/18 01:40:43;;;;;;;44.87;32.17;;;19.20;1.00;;;;;;4970545;28;20824;-82
2023/08/18 01:43:09;;;;;;;48.37;32.70;;;19.20;1.00;;;;;;4961376;28;20439;-83
2023/08/18 01:45:36;;;;;;;48.97;33.37;;;19.30;1.00;;;;;;4966708;28;20520;-83
2023/08/18 01:48:02;;;;;;;45.27;32.20;;;19.30;1.00;;;;;;4985636;28;21041;-81
2023/08/18 01:50:28;;;;;;;46.23;34.73;;;19.30;1.00;;;;;;4966340;28;20979;-80
2023/08/18 01:52:53;;;;;;;43.53;32.97;;;19.30;1.00;;;;;;4961686;28;20474;-82
2023/08/18 01:55:19;;;;;;;44.97;32.40;;;19.30;1.00;;;;;;4971354;28;20789;-83
2023/08/18 01:57:44;;;;;;;49.57;34.37;;;19.30;1.00;;;;;;4971199;28;20186;-82
2023/08/18 02:00:10;;;;;;;46.77;33.30;;;19.30;1.00;;;;;;4971591;28;20225;-82
2023/08/18 02:02:36;;;;;;;53.57;35.03;;;19.30;1.00;;;;;;4969834;28;20195;-82
2023/08/18 02:05:01;;;;;;;57.30;37.00;;;19.30;1.00;;;;;;4975473;28;20678;-82
2023/08/18 02:07:27;;;;;;;52.37;38.63;;;19.30;1.00;;;;;;4971435;28;20238;-82
2023/08/18 02:09:52;;;;;;;63.53;38.73;;;19.30;1.00;;;;;;4974684;28;20581;-82
2023/08/18 02:12:18;;;;;;;60.87;38.00;;;19.20;1.00;;;;;;4972482;28;20205;-81
2023/08/18 02:14:43;;;;;;;66.27;38.80;;;19.20;1.00;;;;;;4972874;28;20201;-82
2023/08/18 02:17:09;;;;;;;63.10;40.83;;;19.20;1.00;;;;;;4975324;28;20189;-83
2023/08/18 02:19:34;;;;;;;67.43;40.63;;;19.20;1.00;;;;;;4975192;28;20200;-83
2023/08/18 02:22:00;;;;;;;64.13;40.67;;;19.20;1.00;;;;;;4963747;28;20192;-80
2023/08/18 02:24:25;;;;;;;60.07;38.10;;;19.10;1.00;;;;;;4968921;28;20184;-81
2023/08/18 02:26:51;;;;;;;63.67;40.27;;;19.20;1.00;;;;;;4980934;28;20200;-81
2023/08/18 02:29:16;;;;;;;64.30;39.70;;;19.20;1.00;;;;;;4969158;28;20190;-81
2023/08/18 02:31:42;;;;;;;66.40;40.80;;;19.20;1.00;;;;;;4975667;28;20287;-80
2023/08/18 02:34:07;;;;;;;68.33;39.67;;;19.10;1.00;;;;;;4967465;28;20189;-80
2023/08/18 02:36:33;;;;;;;67.53;39.87;;;19.10;1.00;;;;;;4971551;28;20196;-82
2023/08/18 02:38:59;;;;;;;65.57;40.80;;;19.10;1.00;;;;;;4974994;28;20692;-81
2023/08/18 02:41:24;;;;;;;68.37;39.87;;;19.20;1.00;;;;;;4964259;28;20216;-83
2023/08/18 02:43:50;;;;;;;63.97;37.50;;;19.20;1.00;;;;;;4969875;28;20196;-84
2023/08/18 02:46:16;;;;;;;62.10;37.87;;;19.20;1.00;;;;;;4970123;28;20200;-82
2023/08/18 02:48:41;;;;;;;67.90;41.87;;;19.20;1.00;;;;;;4973699;28;20569;-81
2023/08/18 02:51:09;;;;;;;67.40;39.90;;;19.10;1.00;;;;;;4973439;28;20478;-81
2023/08/18 02:53:39;;;;;;;67.70;40.80;;;19.00;1.00;;;;;;4967884;28;20206;-81
2023/08/18 02:56:05;;;;;;;76.63;41.70;;;19.00;1.00;;;;;;4969669;28;20446;-82
2023/08/18 02:58:33;;;;;;;74.90;41.80;;;19.00;1.00;;;;;;4957943;28;20512;-81
2023/08/18 03:01:05;;;;;;;73.77;43.47;;;19.00;1.00;;;;;;4969397;28;20205;-83
2023/08/18 03:03:30;;;;;;;79.33;43.53;;;19.00;1.00;;;;;;4969608;28;21315;-84
2023/08/18 03:06:08;;;;;;;71.20;40.53;;;19.00;1.00;;;;;;4972011;28;20502;-83
2023/08/18 03:08:39;;;;;;;74.63;44.47;;;18.90;1.00;;;;;;4966524;28;20206;-81
2023/08/18 03:11:05;;;;;;;77.17;44.30;;;18.80;1.00;;;;;;4970375;28;20857;-83
2023/08/18 03:13:31;;;;;;;66.13;40.63;;;18.80;1.00;;;;;;4967479;28;20452;-81
2023/08/18 03:15:56;;;;;;;64.70;40.10;;;18.80;1.00;;;;;;4975312;28;20462;-81
2023/08/18 03:18:22;;;;;;;78.93;42.60;;;18.80;1.00;;;;;;4968614;28;20430;-83
2023/08/18 03:20:48;;;;;;;66.90;41.10;;;18.90;1.00;;;;;;4968731;28;20206;-82
2023/08/18 03:23:15;;;;;;;63.10;40.20;;;18.90;1.00;;;;;;4968015;28;20687;-80
2023/08/18 03:25:41;;;;;;;67.03;41.13;;;18.90;1.00;;;;;;4975685;28;20444;-81
2023/08/18 03:28:07;;;;;;;74.53;43.27;;;18.90;1.00;;;;;;4968215;28;20436;-80
2023/08/18 03:30:38;;;;;;;69.57;40.60;;;19.00;1.00;;;;;;4966267;28;20468;-81
2023/08/18 03:33:04;;;;;;;65.10;40.20;;;19.00;1.00;;;;;;4968671;28;20220;-84
2023/08/18 03:35:32;;;;;;;79.17;42.63;;;19.00;1.00;;;;;;4966874;28;20443;-83
2023/08/18 03:37:59;;;;;;;65.87;40.23;;;19.00;1.00;;;;;;4969587;28;20443;-84
2023/08/18 03:40:25;;;;;;;71.77;39.60;;;19.00;1.00;;;;;;4969248;28;20495;-81
2023/08/18 03:42:51;;;;;;;69.20;40.60;;;19.00;1.00;;;;;;4973162;28;20446;-82
2023/08/18 03:45:16;;;;;;;73.30;41.20;;;19.00;1.00;;;;;;4987290;28;20455;-80
2023/08/18 03:47:42;;;;;;;73.43;43.00;;;19.00;1.00;;;;;;4968755;28;20259;-80
2023/08/18 03:50:08;;;;;;;71.83;40.47;;;19.00;1.00;;;;;;4964714;28;21028;-81
2023/08/18 03:52:33;;;;;;;72.17;41.03;;;18.90;1.00;;;;;;4972775;28;20248;-83
2023/08/18 03:54:59;;;;;;;64.60;40.27;;;18.90;1.00;;;;;;4964379;28;20447;-81
2023/08/18 03:57:24;;;;;;;67.33;39.40;;;18.90;1.00;;;;;;4979259;28;20185;-82
2023/08/18 03:59:50;;;;;;;67.50;37.67;;;18.90;1.00;;;;;;4973832;28;20213;-82
2023/08/18 04:02:15;;;;;;;63.77;39.37;;;18.90;1.00;;;;;;4974038;28;20225;-82
2023/08/18 04:04:41;;;;;;;59.30;35.50;;;19.00;1.00;;;;;;4973059;28;20197;-82
2023/08/18 04:07:06;;;;;;;65.13;38.33;;;19.00;1.00;;;;;;4960591;28;20202;-81
2023/08/18 04:09:32;;;;;;;58.30;35.17;;;19.00;1.00;;;;;;4972455;28;20698;-83
2023/08/18 04:11:57;;;;;;;63.10;37.87;;;19.00;1.00;;;;;;4963440;28;20223;-80
2023/08/18 04:14:23;;;;;;;68.53;37.83;;;19.00;1.00;;;;;;4957065;28;20207;-82
2023/08/18 04:16:50;;;;;;;58.00;34.80;;;18.90;1.00;;;;;;4960476;28;20186;-82
2023/08/18 04:19:15;;;;;;;60.67;37.27;;;18.90;1.00;;;;;;4964367;28;20699;-81
2023/08/18 04:21:41;;;;;;;58.57;35.70;;;18.90;1.00;;;;;;4964370;28;20497;-82
2023/08/18 04:24:06;;;;;;;55.97;34.63;;;19.00;1.00;;;;;;4961605;28;20192;-83
2023/08/18 04:26:35;;;;;;;61.90;34.00;;;19.00;1.00;;;;;;4969875;28;20747;-82
2023/08/18 04:29:00;;;;;;;53.30;32.03;;;18.90;1.00;;;;;;4956409;28;20199;-82
2023/08/18 04:31:26;;;;;;;53.17;32.27;;;18.90;1.00;;;;;;4967937;28;20481;-82
2023/08/18 04:33:52;;;;;;;52.83;31.90;;;18.90;1.00;;;;;;4971363;28;20190;-81
2023/08/18 04:36:17;;;;;;;59.37;32.60;;;18.90;1.00;;;;;;4969887;28;20858;-80
2023/08/18 04:38:43;;;;;;;61.87;31.50;;;18.90;1.00;;;;;;4963908;28;20187;-82
2023/08/18 04:41:09;;;;;;;59.60;33.00;;;18.90;1.00;;;;;;4960681;28;20234;-82
2023/08/18 04:43:35;;;;;;;90.33;32.43;;;18.90;1.00;;;;;;4958538;28;20242;-82
2023/08/18 04:46:00;;;;;;;50.40;31.20;;;18.90;1.00;;;;;;4960443;28;20477;-80
2023/08/18 04:48:26;;;;;;;58.57;32.50;;;18.90;1.00;;;;;;4962184;28;20737;-80
2023/08/18 04:50:51;;;;;;;56.07;32.37;;;18.80;1.00;;;;;;4969564;28;20349;-82
2023/08/18 04:53:17;;;;;;;53.63;28.73;;;18.80;1.00;;;;;;4962128;28;20195;-82
2023/08/18 04:55:43;;;;;;;54.97;31.93;;;18.80;1.00;;;;;;4974886;28;20267;-83
2023/08/18 04:58:12;;;;;;;87.90;31.10;;;18.80;1.00;;;;;;4962113;28;20177;-82
2023/08/18 05:00:39;;;;;;;60.23;32.30;;;18.80;1.00;;;;;;4964645;28;20474;-82
2023/08/18 05:03:05;;;;;;;52.20;31.27;;;18.80;1.00;;;;;;4966486;28;20485;-83
2023/08/18 05:05:33;;;;;;;65.63;32.13;;;18.80;1.00;;;;;;4968632;28;20437;-82
2023/08/18 05:07:59;;;;;;;71.53;31.17;;;18.80;1.00;;;;;;4955447;28;20448;-82
2023/08/18 05:10:25;;;;;;;61.30;31.77;;;18.70;1.00;;;;;;4967703;28;20470;-82
2023/08/18 05:12:50;;;;;;;78.50;31.33;;;18.70;5.30;;;;;;4964454;28;20721;-82
2023/08/18 05:15:16;;;;;;;57.30;31.53;;;18.80;7.10;;;;;;4963105;28;21642;-82
2023/08/18 05:17:42;;;;;;;60.20;32.20;;;18.80;9.30;;;;;;4966543;28;20195;-82
2023/08/18 05:20:08;;;;;;;104.20;31.27;;;18.80;10.40;;;;;;4958076;28;20291;-83
2023/08/18 05:22:33;;;;;;;56.20;32.10;;;18.80;8.30;;;;;;4968788;28;20195;-81
2023/08/18 05:24:59;;;;;;;42.50;27.40;;;18.90;7.40;;;;;;4957530;28;20431;-82
2023/08/18 05:27:25;;;;;;;82.27;29.70;;;19.00;5.30;;;;;;4961571;28;20188;-82
2023/08/18 05:29:51;;;;;;;76.53;30.63;;;19.00;3.50;;;;;;4969832;28;20691;-82
2023/08/18 05:32:16;;;;;;;65.83;29.93;;;19.00;1.00;;;;;;4958073;28;20462;-82
2023/08/18 05:34:42;;;;;;;84.30;30.87;;;19.00;1.00;;;;;;4971879;28;20196;-81
2023/08/18 05:37:07;;;;;;;81.33;30.47;;;19.00;1.00;;;;;;4956586;28;20279;-81
2023/08/18 05:39:33;;;;;;;74.00;31.23;;;19.10;1.00;;;;;;4976279;28;20199;-82
2023/08/18 05:41:58;;;;;;;73.53;28.87;;;19.10;1.00;;;;;;4976280;28;20279;-82
2023/08/18 05:44:24;;;;;;;67.77;30.77;;;19.10;1.00;;;;;;4976752;28;20196;-82
2023/08/18 05:46:49;;;;;;;71.63;29.20;;;19.10;1.00;;;;;;4969701;28;20266;-82
2023/08/18 05:49:15;;;;;;;76.27;28.80;;;19.20;1.00;;;;;;4970922;28;20326;-82
2023/08/18 05:51:43;;;;;;;83.73;30.53;;;19.20;1.00;;;;;;4969930;28;20227;-82
2023/08/18 05:54:09;;;;;;;75.30;29.47;;;19.20;1.00;;;;;;4975453;28;20219;-82
2023/08/18 05:56:34;;;;;;;50.90;29.53;;;19.30;1.00;;;;;;4976028;28;21000;-82
2023/08/18 05:59:00;;;;;;;99.07;29.10;;;19.30;1.00;;;;;;4976328;28;20522;-82
2023/08/18 06:01:25;;;;;;;66.67;28.50;;;19.30;1.00;;;;;;4973417;28;20247;-84
2023/08/18 06:03:51;;;;;;;62.30;29.13;;;19.40;1.00;;;;;;4964891;28;20263;-82
2023/08/18 06:06:16;;;;;;;57.27;29.50;;;19.40;1.00;;;;;;4966538;28;20199;-82
2023/08/18 06:08:42;;;;;;;54.43;28.83;;;19.50;1.00;;;;;;4961850;28;20275;-83
2023/08/18 06:11:07;;;;;;;88.47;29.50;;;19.60;1.00;;;;;;4971181;28;20219;-80
2023/08/18 06:13:33;;;;;;;69.47;27.47;;;19.60;1.00;;;;;;4974562;28;20211;-82
2023/08/18 06:16:03;;;;;;;49.27;26.50;;;19.60;1.00;;;;;;4977430;28;20648;-83
2023/08/18 06:18:29;;;;;;;57.07;27.40;;;19.60;1.00;;;;;;4971680;28;20192;-82
2023/08/18 06:20:54;;;;;;;63.87;27.17;;;19.60;1.00;;;;;;4972224;28;20510;-83
2023/08/18 06:23:20;;;;;;;67.73;25.53;;;19.60;1.00;;;;;;4974601;28;20185;-81
2023/08/18 06:25:45;;;;;;;39.17;24.87;;;19.60;1.00;;;;;;4969714;28;20669;-82
2023/08/18 06:28:11;;;;;;;35.03;23.70;;;19.60;1.00;;;;;;4968987;28;20266;-83
2023/08/18 06:30:36;;;;;;;85.00;25.37;;;19.70;1.00;;;;;;4974121;28;20202;-82
2023/08/18 06:33:02;;;;;;;35.30;23.20;;;19.70;1.00;;;;;;4974741;28;20661;-82
2023/08/18 06:35:28;;;;;;;59.97;24.70;;;19.70;1.00;;;;;;4971147;28;20183;-82
2023/08/18 06:37:53;;;;;;;42.27;24.17;;;19.70;1.00;;;;;;4967974;28;20444;-83
2023/08/18 06:40:19;;;;;;;55.63;27.90;;;19.70;1.00;;;;;;4964237;28;20267;-82
2023/08/18 06:42:44;;;;;;;32.23;23.30;;;19.70;1.00;;;;;;4962048;28;20189;-82
2023/08/18 06:45:10;;;;;;;63.43;27.07;;;19.70;1.00;;;;;;4973418;28;20199;-80
2023/08/18 06:47:35;;;;;;;86.00;26.17;;;19.80;1.00;;;;;;4964213;28;20258;-82
2023/08/18 06:50:01;;;;;;;83.97;26.60;;;19.70;1.00;;;;;;4969068;28;20211;-80
2023/08/18 06:52:28;;;;;;;47.07;25.40;;;19.80;1.00;;;;;;4969215;28;20238;-82
2023/08/18 06:54:54;;;;;;;46.30;24.40;;;19.80;1.00;;;;;;4971085;28;20452;-81
2023/08/18 06:57:19;;;;;;;61.47;26.87;;;19.80;1.00;;;;;;4957207;28;20192;-82
2023/08/18 06:59:45;;;;;;;37.40;24.63;;;19.90;1.00;;;;;;4960240;28;20699;-81
2023/08/18 07:02:10;;;;;;;47.37;25.37;;;20.00;1.00;;;;;;4954171;28;20257;-82
2023/08/18 07:04:36;;;;;;;42.53;26.87;;;20.10;1.00;;;;;;4970229;28;20685;-80
2023/08/18 07:07:03;;;;;;;47.83;26.00;;;20.20;1.00;;;;;;4960515;28;20191;-80
2023/08/18 07:09:28;;;;;;;35.43;25.90;;;20.30;1.00;;;;;;4969202;28;20989;-81
2023/08/18 07:11:54;;;;;;;40.40;24.73;;;20.30;1.00;;;;;;4955203;28;20480;-81
2023/08/18 07:14:19;;;;;;;51.37;24.83;;;20.40;1.00;;;;;;4963037;28;20189;-81
2023/08/18 07:16:45;;;;;;;39.00;25.13;;;20.40;1.00;;;;;;4961132;28;20303;-82
2023/08/18 07:19:10;;;;;;;47.43;29.20;;;20.30;1.00;;;;;;4964761;28;20291;-81
2023/08/18 07:21:36;;;;;;;44.43;28.07;;;20.30;1.00;;;;;;4965279;28;20591;-81
2023/08/18 07:24:03;;;;;;;72.13;33.37;;;20.30;1.00;;;;;;4965369;28;20203;-81
2023/08/18 07:26:28;;;;;;;59.23;31.83;;;20.10;1.00;;;;;;4956693;28;20501;-82
2023/08/18 07:28:54;;;;;;;60.13;32.07;;;20.00;1.00;;;;;;4965329;28;20503;-80
2023/08/18 07:31:20;;;;;;;52.37;34.10;;;20.10;1.00;;;;;;4952995;28;20234;-81
2023/08/18 07:33:45;;;;;;;62.07;31.40;;;20.10;1.00;;;;;;4957387;28;20205;-81
2023/08/18 07:36:11;;;;;;;44.57;29.40;;;20.20;1.00;;;;;;4959387;28;20189;-81
2023/08/18 07:38:36;;;;;;;45.00;30.77;;;20.30;1.00;;;;;;4960144;28;20429;-82
2023/08/18 07:41:02;;;;;;;48.83;32.30;;;20.30;1.00;;;;;;4962513;28;20249;-81
2023/08/18 07:43:28;;;;;;;45.63;30.80;;;20.40;1.00;;;;;;4964269;28;20198;-83
2023/08/18 07:45:55;;;;;;;50.37;33.33;;;20.40;1.00;;;;;;4955094;28;20713;-82
2023/08/18 07:48:20;;;;;;;60.73;35.83;;;20.50;1.00;;;;;;4965586;28;20271;-83
2023/08/18 07:50:46;;;;;;;57.23;34.83;;;20.50;1.00;;;;;;4964441;28;20466;-81
2023/08/18 07:53:11;;;;;;;60.50;34.57;;;20.50;1.00;;;;;;4959391;28;20226;-81
2023/08/18 07:55:37;;;;;;;53.20;36.03;;;20.50;1.00;;;;;;4962976;28;20549;-81
2023/08/18 07:58:04;;;;;;;52.30;34.30;;;20.50;1.00;;;;;;4962578;28;20237;-82
2023/08/18 08:00:30;;;;;;;49.27;32.67;;;20.70;1.00;;;;;;4963517;28;20246;-83
2023/08/18 08:02:57;;;;;;;52.83;37.20;;;20.70;1.00;;;;;;4958053;28;20447;-81
2023/08/18 08:05:23;;;;;;;46.20;33.70;;;20.90;1.00;;;;;;4961728;28;20537;-84
2023/08/18 08:07:49;;;;;;;53.07;36.87;;;21.10;1.00;;;;;;4962965;28;20866;-82
2023/08/18 08:10:15;;;;;;;56.90;38.17;;;21.00;1.00;;;;;;4958779;28;20476;-81
2023/08/18 08:12:41;;;;;;;57.37;37.40;;;20.90;1.00;;;;;;4957534;28;20975;-82
2023/08/18 08:15:11;;;;;;;52.00;35.57;;;21.10;1.00;;;;;;4959747;28;20450;-84
2023/08/18 08:17:37;;;;;;;54.97;38.03;;;21.20;1.00;;;;;;4960205;28;20453;-81
2023/08/18 08:20:16;;;;;;;56.27;40.20;;;21.30;99.90;;;;;;4958113;28;20464;-80
2023/08/18 08:22:43;;;;;;;45.27;34.70;;;21.50;99.90;;;;;;4967130;28;20194;-82
2023/08/18 08:25:09;;;;;;;49.13;35.77;;;21.80;99.90;;;;;;4962960;28;20446;-82
2023/08/18 08:27:35;;;;;;;49.57;34.67;;;21.90;99.90;;;;;;4963295;28;20506;-82
2023/08/18 08:30:00;;;;;;;44.10;33.27;;;22.20;99.90;;;;;;4964436;28;20465;-82
2023/08/18 08:32:26;;;;;;;42.93;31.97;;;22.20;1.00;;;;;;4963706;28;20212;-82
2023/08/18 08:34:51;;;;;;;44.70;35.00;;;22.40;99.90;;;;;;4958473;28;20259;-82
2023/08/18 08:37:18;;;;;;;47.03;35.30;;;22.40;37.80;;;;;;4957730;28;20216;-83
2023/08/18 08:39:44;;;;;;;46.60;35.43;;;22.30;99.90;;;;;;4962418;28;20215;-83
2023/08/18 08:42:10;;;;;;;49.63;37.40;;;22.40;94.70;;;;;;4964979;28;20471;-83
2023/08/18 08:44:36;;;;;;;52.03;39.17;;;22.20;99.90;;;;;;4961462;28;20489;-82
2023/08/18 08:47:02;;;;;;;44.23;36.00;;;22.00;1.00;;;;;;4961341;28;20457;-81
2023/08/18 08:49:29;;;;;;;44.93;36.77;;;22.30;1.00;;;;;;4954668;28;20499;-81
2023/08/18 08:52:02;;;;;;;51.30;38.43;;;22.40;99.90;;;;;;4960822;28;20220;-81
2023/08/18 08:54:30;;;;;;;50.17;37.90;;;22.30;99.90;;;;;;4960106;28;20439;-81
2023/08/18 08:56:56;;;;;;;44.90;35.80;;;22.40;99.90;;;;;;4958507;28;20462;-81
2023/08/18 08:59:22;;;;;;;46.17;35.80;;;22.50;99.90;;;;;;4958247;28;20450;-84
2023/08/18 09:01:48;;;;;;;46.40;36.17;;;22.70;1.00;;;;;;4962916;28;20547;-80
2023/08/18 09:04:15;;;;;;;50.67;39.10;;;22.50;99.90;;;;;;4960343;28;20561;-83
2023/08/18 09:06:41;;;;;;;50.00;38.47;;;22.60;99.90;;;;;;4964613;28;20676;-82
2023/08/18 09:09:07;;;;;;;45.30;35.47;;;22.60;99.90;;;;;;4958129;28;20449;-80
2023/08/18 09:11:39;;;;;;;50.43;40.60;;;23.00;99.90;;;;;;4963587;28;20772;-82
2023/08/18 09:14:05;;;;;;;57.37;45.70;;;23.20;1.00;;;;;;4962455;28;20440;-81
2023/08/18 09:16:31;;;;;;;57.63;42.00;;;23.30;99.90;;;;;;4953096;28;20441;-81
2023/08/18 09:18:56;;;;;;;54.80;41.80;;;23.60;99.90;;;;;;4961440;28;20246;-82
2023/08/18 09:21:23;;;;;;;55.13;42.77;;;23.80;1.00;;;;;;4960538;28;20836;-80
2023/08/18 09:23:55;;;;;;;57.47;44.40;;;23.80;99.90;;;;;;4963578;28;20201;-82
2023/08/18 09:26:20;;;;;;;55.30;42.80;;;24.20;1.00;;;;;;4966477;28;20427;-82
2023/08/18 09:28:46;;;;;;;59.37;45.60;;;24.20;1.00;;;;;;4962001;28;20434;-81
2023/08/18 09:31:11;;;;;;;52.03;41.80;;;24.30;1.00;;;;;;4968293;28;20212;-82
2023/08/18 09:33:37;;;;;;;52.57;42.60;;;24.70;99.90;;;;;;4954171;28;20184;-81
2023/08/18 09:36:03;;;;;;;48.97;40.47;;;24.90;99.90;;;;;;4962393;28;20199;-82
2023/08/18 09:38:41;;;;;;;53.83;42.10;;;25.00;1.00;;;;;;4957575;28;20600;-82
2023/08/18 09:41:11;;;;;;;53.67;43.80;;;25.40;1.00;;;;;;4959578;28;20444;-83
2023/08/18 09:43:38;;;;;;;52.20;43.17;;;25.50;1.00;;;;;;4955243;28;20444;-84
2023/08/18 09:46:04;;;;;;;52.53;41.97;;;25.40;99.90;;;;;;4967286;28;20522;-82
2023/08/18 09:48:34;;;;;;;50.40;41.67;;;26.00;99.90;;;;;;4964796;28;20451;-81
2023/08/18 09:51:01;;;;;;;48.40;41.40;;;26.30;99.90;;;;;;4954351;28;20448;-81
2023/08/18 09:53:31;;;;;;;42.27;37.77;;;26.30;99.90;;;;;;4961185;28;20456;-81
2023/08/18 09:56:04;;;;;;;45.00;40.10;;;27.20;99.90;;;;;;4965299;28;20816;-80
2023/08/18 09:58:46;;;;;;;38.87;34.67;;;28.40;27.70;;;;;;4955897;28;20451;-81
2023/08/18 10:01:14;;;;;;;41.77;37.33;;;31.00;1.00;;;;;;4957682;28;20474;-82
2023/08/18 10:03:41;;;;;;;34.03;30.83;;;31.60;1.00;;;;;;4951682;28;20455;-83
2023/08/18 10:06:07;;;;;;;31.77;28.77;;;33.70;1.00;;;;;;4960770;28;20523;-82
2023/08/18 10:08:33;;;;;;;28.40;25.70;;;34.80;1.00;;;;;;4965099;28;20454;-83
2023/08/18 10:11:02;;;;;;;29.17;25.87;;;36.90;1.00;;;;;;4957671;28;20467;-82
2023/08/18 10:13:33;;;;;;;26.67;23.97;;;37.90;1.00;;;;;;4963769;28;20474;-83
2023/08/18 10:16:02;;;;;;;26.37;24.07;;;39.50;1.00;;;;;;4959205;28;20827;-82
2023/08/18 10:18:28;;;;;;;23.60;21.70;;;41.00;1.00;;;;;;4962974;28;20478;-81
2023/08/18 10:20:55;;;;;;;24.83;22.83;;;41.50;1.00;;;;;;4964781;28;20507;-80
2023/08/18 10:23:23;;;;;;;24.13;22.07;;;41.60;1.00;;;;;;4964412;28;20216;-80
2023/08/18 10:25:50;;;;;;;27.80;25.23;;;41.80;1.00;;;;;;4966090;28;20502;-78
2023/08/18 10:28:20;;;;;;;25.93;23.53;;;40.80;1.00;;;;;;4968246;28;20465;-81
2023/08/18 10:31:00;;;;;;;26.87;24.67;;;40.60;1.00;;;;;;4965272;28;20985;-81
2023/08/18 10:33:43;;;;;;;24.47;22.47;;;39.90;1.00;;;;;;4963612;28;20497;-81
2023/08/18 10:36:09;;;;;;;24.13;22.23;;;40.30;1.00;;;;;;4962273;28;20443;-81
2023/08/18 10:38:39;;;;;;;22.83;20.73;;;40.50;1.00;;;;;;4964020;28;20456;-80
2023/08/18 10:41:05;;;;;;;21.97;19.97;;;40.00;1.00;;;;;;4961361;28;20589;-80
2023/08/18 10:43:41;;;;;;;22.40;20.40;;;40.50;1.00;;;;;;4959079;28;20444;-83
2023/08/18 10:46:13;;;;;;;21.57;19.90;;;40.90;1.00;;;;;;4962091;28;20800;-80
2023/08/18 10:48:39;;;;;;;19.23;17.63;;;41.20;1.00;;;;;;4961845;28;20471;-80
2023/08/18 10:51:04;;;;;;;20.73;18.87;;;41.80;1.00;;;;;;4954452;28;20448;-82
2023/08/18 10:53:36;;;;;;;18.57;17.13;;;42.00;1.00;;;;;;4965226;28;20199;-79
2023/08/18 10:56:05;;;;;;;19.83;18.03;;;42.50;1.00;;;;;;4961540;28;20440;-81
2023/08/18 10:58:32;;;;;;;18.30;16.80;;;42.70;1.00;;;;;;4961535;28;20543;-80
2023/08/18 11:00:59;;;;;;;19.63;18.03;;;42.40;1.00;;;;;;4966639;28;20456;-82
2023/08/18 11:03:25;;;;;;;22.50;20.13;;;42.40;1.00;;;;;;4965736;28;20448;-80
2023/08/18 11:05:51;;;;;;;19.00;17.20;;;40.60;1.00;;;;;;4963380;28;21008;-81
2023/08/18 11:08:17;;;;;;;17.13;15.63;;;41.50;1.00;;;;;;4962315;28;20463;-81
2023/08/18 11:10:43;;;;;;;17.03;15.40;;;41.70;1.00;;;;;;4959527;28;20216;-82
2023/08/18 11:13:26;;;;;;;15.93;14.73;;;42.30;1.00;;;;;;4963010;28;20483;-81
2023/08/18 11:15:53;;;;;;;14.83;13.53;;;42.40;1.00;;;;;;4965353;28;20186;-80
2023/08/18 11:18:20;;;;;;;16.87;15.40;;;42.10;1.00;;;;;;4968518;28;20526;-81
2023/08/18 11:20:47;;;;;;;14.17;12.70;;;41.50;1.00;;;;;;4954103;28;20450;-81
2023/08/18 11:23:13;;;;;;;13.70;12.60;;;41.80;1.00;;;;;;4955458;28;21179;-80
2023/08/18 11:25:39;;;;;;;14.63;13.17;;;41.90;1.00;;;;;;4975614;28;20442;-81
2023/08/18 11:28:05;;;;;;;15.83;14.27;;;41.70;1.00;;;;;;4956103;28;20216;-81
2023/08/18 11:30:31;;;;;;;15.37;14.00;;;40.80;1.00;;;;;;4954364;28;20894;-81
2023/08/18 11:32:57;;;;;;;13.60;12.40;;;40.10;1.00;;;;;;4953984;28;20475;-81
2023/08/18 11:35:24;;;;;;;12.13;10.17;;;40.10;1.00;;;;;;4959133;28;20437;-81
2023/08/18 11:37:51;;;;;;;12.07;10.97;;;39.90;1.00;;;;;;4960648;28;20181;-82
2023/08/18 11:40:18;;;;;;;14.30;13.17;;;40.30;1.00;;;;;;4959880;28;20509;-80
2023/08/18 11:42:46;;;;;;;13.93;12.63;;;39.10;1.00;;;;;;4955969;28;20838;-82
2023/08/18 11:45:16;;;;;;;13.23;8.83;;;39.10;1.00;;;;;;4962400;28;20589;-80
2023/08/18 11:47:43;;;;;;;11.57;9.60;;;39.60;1.00;;;;;;4959433;28;20452;-81
2023/08/18 11:50:09;;;;;;;13.70;12.57;;;40.30;1.00;;;;;;4954931;28;20534;-82
2023/08/18 11:52:43;;;;;;;13.80;12.63;;;39.10;1.00;;;;;;4958904;28;20533;-82
2023/08/18 11:55:09;;;;;;;12.97;11.80;;;39.10;1.00;;;;;;4961730;28;20527;-81
2023/08/18 11:57:35;;;;;;;14.50;11.43;;;38.10;1.00;;;;;;4977954;28;20432;-81
2023/08/18 12:00:05;;;;;;;12.17;11.00;;;38.10;1.00;;;;;;4957449;28;20522;-81
2023/08/18 12:02:33;;;;;;;12.83;10.27;;;38.40;1.00;;;;;;4963020;28;20231;-82
2023/08/18 12:04:59;;;;;;;13.57;12.43;;;38.90;1.00;;;;;;4968689;28;20436;-81
2023/08/18 12:07:24;;;;;;;13.27;11.90;;;38.70;1.00;;;;;;4954247;28;21136;-80
2023/08/18 12:09:50;;;;;;;11.40;9.90;;;38.90;1.00;;;;;;4961237;28;20219;-81
2023/08/18 12:12:15;;;;;;;15.00;12.27;;;39.20;1.00;;;;;;4961204;28;20227;-82
2023/08/18 12:14:42;;;;;;;11.37;10.23;;;39.30;1.00;;;;;;4963748;28;20188;-82
2023/08/18 12:17:07;;;;;;;12.33;10.30;;;39.10;1.00;;;;;;4958419;28;20666;-81
2023/08/18 12:19:33;;;;;;;12.50;11.30;;;38.90;1.00;;;;;;4954745;28;20452;-80
2023/08/18 12:21:59;;;;;;;11.93;9.77;;;38.70;1.00;;;;;;4954962;28;20253;-81
2023/08/18 12:24:24;;;;;;;10.57;9.67;;;38.90;1.00;;;;;;4958652;28;20440;-82
2023/08/18 12:26:50;;;;;;;17.53;15.97;;;39.30;1.00;;;;;;4961796;28;20777;-82
2023/08/18 12:29:15;;;;;;;18.53;14.67;;;38.50;1.00;;;;;;4963856;28;20717;-83
2023/08/18 12:31:41;;;;;;;15.63;14.33;;;38.30;1.00;;;;;;4954464;28;20205;-82
2023/08/18 12:34:07;;;;;;;14.90;13.60;;;38.10;1.00;;;;;;4957903;28;20181;-81